Time;durP1;ratioP1;P1;durP2;ratioP2;P2;SDS_P1;SDS_P2;PMS_P1;PMS_P2;Temp;Humidity;BMP_temperature;BMP_pressure;BME280_temperature;BME280_humidity;BME280_pressure;Samples;Min_cycle;Max_cycle;Signal;HPM_P1;HPM_P2
2022/07/27 00:00:48;;;;;;;3.40;1.20;;;;;;;20.06;53.58;96711.66;10487244;28;20483;-30
2022/07/27 00:05:48;;;;;;;1.08;0.80;;;;;;;20.11;53.40;96711.63;10484544;28;20035;-30
2022/07/27 00:10:50;;;;;;;1.77;1.10;;;;;;;20.14;53.06;96701.44;10490673;28;20047;-30
2022/07/27 00:15:50;;;;;;;2.67;1.27;;;;;;;20.15;53.10;96703.13;10485923;28;20043;-29
2022/07/27 00:20:51;;;;;;;2.80;1.20;;;;;;;19.98;54.05;96705.75;10485147;28;20035;-30
2022/07/27 00:25:51;;;;;;;1.93;1.20;;;;;;;19.96;54.07;96701.53;10488735;28;20035;-30
2022/07/27 00:30:52;;;;;;;1.98;0.93;;;;;;;19.92;54.27;96704.94;10485326;28;20037;-30
2022/07/27 00:35:52;;;;;;;1.57;1.03;;;;;;;19.92;54.53;96685.44;10486065;28;20040;-29
2022/07/27 00:40:53;;;;;;;3.17;1.10;;;;;;;19.88;54.98;96704.13;10488310;28;20644;-30
2022/07/27 00:45:53;;;;;;;2.80;1.00;;;;;;;19.82;54.62;96685.50;10487741;28;20094;-30
2022/07/27 00:50:54;;;;;;;2.23;1.10;;;;;;;19.74;55.14;96684.69;10482002;28;20414;-30
2022/07/27 00:55:55;;;;;;;2.15;1.38;;;;;;;19.70;55.62;96677.97;10488146;28;20029;-29
2022/07/27 01:00:55;;;;;;;2.90;1.50;;;;;;;19.68;55.50;96669.50;10486317;28;20478;-31
2022/07/27 01:05:57;;;;;;;3.17;1.30;;;;;;;19.67;55.43;96662.75;10484438;28;20287;-32
2022/07/27 01:10:58;;;;;;;2.55;1.25;;;;;;;19.61;55.56;96642.47;10487929;28;20036;-30
2022/07/27 01:16:06;;;;;;;1.95;1.40;;;;;;;19.64;55.39;96647.50;10483538;28;20040;-29
2022/07/27 01:21:08;;;;;;;1.90;1.30;;;;;;;19.62;55.59;96641.59;10484198;28;20029;-30
2022/07/27 01:26:08;;;;;;;4.05;1.27;;;;;;;19.62;56.05;96636.53;10487953;28;20105;-30
2022/07/27 01:31:08;;;;;;;3.40;1.03;;;;;;;19.59;56.28;96624.69;10485890;28;20060;-29
2022/07/27 01:36:09;;;;;;;3.80;1.23;;;;;;;19.61;56.27;96624.69;10484883;28;20829;-30
2022/07/27 01:41:10;;;;;;;2.08;1.25;;;;;;;19.64;56.21;96622.13;10486758;28;20139;-30
2022/07/27 01:46:10;;;;;;;3.05;1.05;;;;;;;19.62;56.38;96629.75;10492572;28;20029;-32
2022/07/27 01:51:10;;;;;;;2.17;1.02;;;;;;;19.57;56.64;96623.84;10488179;28;20135;-30
2022/07/27 01:56:12;;;;;;;1.40;0.90;;;;;;;19.54;56.94;96623.03;10494436;28;20033;-30
2022/07/27 02:01:12;;;;;;;1.17;1.08;;;;;;;19.49;56.91;96628.13;10493454;28;20401;-29
2022/07/27 02:06:12;;;;;;;2.80;1.60;;;;;;;19.54;56.87;96635.72;10491729;28;20028;-30
2022/07/27 02:16:32;;;;;;;2.47;1.45;;;;;;;19.50;57.16;96618.84;10491757;28;20083;-29
2022/07/27 02:21:32;;;;;;;4.40;1.57;;;;;;;19.50;57.31;96619.66;10489453;28;20387;-30
2022/07/27 02:26:32;;;;;;;2.03;1.20;;;;;;;19.48;57.49;96615.44;10494222;28;20040;-30
2022/07/27 02:31:33;;;;;;;4.23;1.70;;;;;;;19.45;57.62;96612.91;10492607;28;20294;-29
2022/07/27 02:36:33;;;;;;;2.53;1.30;;;;;;;19.46;57.73;96618.00;10489414;28;20150;-29
2022/07/27 02:41:33;;;;;;;2.43;1.40;;;;;;;19.47;57.84;96621.38;10491461;28;20036;-30
2022/07/27 02:46:34;;;;;;;2.73;1.50;;;;;;;19.47;57.73;96618.81;10491080;28;20056;-29
2022/07/27 02:51:35;;;;;;;2.17;1.40;;;;;;;19.47;57.89;96623.91;10486367;28;20813;-31
2022/07/27 02:56:35;;;;;;;3.75;1.40;;;;;;;19.49;57.59;96617.16;10491917;28;20033;-31
2022/07/27 03:01:36;;;;;;;2.50;1.60;;;;;;;19.49;57.72;96610.34;10486793;28;20408;-30
2022/07/27 03:06:37;;;;;;;4.43;1.40;;;;;;;19.51;57.81;96605.28;10489668;28;20021;-30
2022/07/27 03:11:37;;;;;;;1.90;1.50;;;;;;;19.48;57.45;96613.75;10491656;28;20033;-31
2022/07/27 03:16:38;;;;;;;2.87;1.13;;;;;;;19.49;57.60;96612.06;10489069;28;20376;-30
2022/07/27 03:21:38;;;;;;;1.92;0.80;;;;;;;19.50;57.30;96613.75;10487306;28;20040;-30
2022/07/27 03:26:39;;;;;;;3.80;1.40;;;;;;;19.46;57.89;96615.47;10491292;28;20036;-30
2022/07/27 03:31:39;;;;;;;5.27;2.03;;;;;;;19.39;58.41;96605.31;10490024;28;20512;-30
2022/07/27 03:36:39;;;;;;;4.50;1.77;;;;;;;19.28;58.44;96602.00;10487734;28;20557;-31
2022/07/27 03:41:40;;;;;;;1.87;1.50;;;;;;;19.34;58.62;96618.03;10488771;28;20047;-30
2022/07/27 03:46:40;;;;;;;4.15;1.50;;;;;;;19.40;58.31;96607.00;10489123;28;20048;-29
2022/07/27 03:51:41;;;;;;;2.70;1.50;;;;;;;19.44;57.94;96616.31;10481125;28;20391;-30
2022/07/27 03:56:59;;;;;;;3.83;1.70;;;;;;;19.60;57.49;96617.91;10449087;28;20404;-31
2022/07/27 04:01:59;;;;;;;1.43;1.27;;;;;;;19.47;58.22;96609.53;10439320;28;20449;-30
2022/07/27 04:06:59;;;;;;;2.17;1.00;;;;;;;19.35;58.65;96608.75;10435498;28;20361;-30
2022/07/27 04:12:00;;;;;;;2.17;1.30;;;;;;;19.43;58.55;96612.09;10428505;28;20845;-31
2022/07/27 04:17:00;;;;;;;2.72;1.40;;;;;;;19.44;58.41;96613.78;10382858;28;20037;-32
2022/07/27 04:22:01;;;;;;;4.43;1.57;;;;;;;19.46;58.39;96618.00;10389819;28;20029;-32
2022/07/27 04:27:01;;;;;;;3.10;1.60;;;;;;;19.56;57.98;96613.69;10423331;28;20099;-30
2022/07/27 04:32:01;;;;;;;2.53;1.73;;;;;;;19.47;58.20;96618.81;10437531;28;20373;-31
2022/07/27 04:37:02;;;;;;;2.87;1.60;;;;;;;19.42;58.71;96623.09;10435826;28;20382;-31
2022/07/27 04:42:02;;;;;;;6.20;2.30;;;;;;;19.46;58.45;96624.75;10439553;28;20029;-31
2022/07/27 04:47:03;;;;;;;3.65;2.28;;;;;;;19.32;58.94;96619.75;10438273;28;20580;-33
2022/07/27 04:52:03;;;;;;;4.50;2.20;;;;;;;19.27;59.29;96626.53;10432925;28;20506;-30
2022/07/27 04:57:04;;;;;;;6.95;2.95;;;;;;;19.30;59.23;96631.63;10438993;28;20295;-30
2022/07/27 05:02:04;;;;;;;5.35;3.28;;;;;;;19.35;59.67;96629.88;10430754;28;20034;-30
2022/07/27 05:07:04;;;;;;;6.10;3.27;;;;;;;19.32;59.82;96637.53;10414309;28;20513;-30
2022/07/27 05:12:05;;;;;;;4.60;3.10;;;;;;;19.37;59.47;96637.50;10411306;28;20539;-33
2022/07/27 05:17:05;;;;;;;7.40;3.28;;;;;;;19.32;59.79;96644.28;10408232;28;21201;-32
2022/07/27 05:22:06;;;;;;;5.37;2.90;;;;;;;19.32;59.91;96649.38;10403492;28;20561;-31
2022/07/27 05:27:07;;;;;;;7.38;2.70;;;;;;;19.46;59.23;96660.31;10410930;28;20059;-31
2022/07/27 05:32:08;;;;;;;5.97;2.50;;;;;;;19.41;58.87;96659.50;10410067;28;20400;-31
2022/07/27 05:37:08;;;;;;;5.43;2.00;;;;;;;19.41;58.74;96660.34;10369253;28;20439;-30
2022/07/27 05:42:09;;;;;;;4.00;2.37;;;;;;;19.44;58.78;96656.94;10362487;28;20048;-30
2022/07/27 05:47:09;;;;;;;18.33;3.22;;;;;;;19.50;59.45;96657.75;10363765;28;21431;-29
2022/07/27 05:52:09;;;;;;;7.43;2.27;;;;;;;19.49;59.52;96653.53;10357791;28;20620;-30
2022/07/27 05:57:10;;;;;;;6.33;2.43;;;;;;;19.62;59.34;96654.31;10362474;28;20342;-30
2022/07/27 06:02:10;;;;;;;2.27;2.07;;;;;;;20.06;58.44;96657.44;10353781;28;20699;-31
2022/07/27 06:12:29;;;;;;;7.60;2.42;;;;;;;20.15;58.37;96652.28;10352409;28;20026;-32
2022/07/27 06:17:29;;;;;;;13.07;2.30;;;;;;;20.63;57.06;96647.63;10354922;28;20046;-31
2022/07/27 06:22:30;;;;;;;7.67;1.83;;;;;;;20.60;57.14;96650.19;10342581;22;20332;-30
2022/07/27 06:27:30;;;;;;;2.95;1.70;;;;;;;20.81;57.39;96650.00;10314194;28;20025;-28
2022/07/27 06:32:31;;;;;;;3.60;1.63;;;;;;;20.42;55.40;96639.38;10305013;28;20041;-28
2022/07/27 06:37:31;;;;;;;5.40;1.88;;;;;;;20.73;55.03;96650.06;10300582;28;20092;-28
2022/07/27 06:42:32;;;;;;;7.27;1.93;;;;;;;20.95;54.68;96645.63;10305799;28;20567;-28
2022/07/27 06:47:32;;;;;;;2.47;1.37;;;;;;;21.03;54.58;96644.69;10304739;28;20035;-28
2022/07/27 06:52:32;;;;;;;6.10;1.50;;;;;;;21.19;54.37;96646.19;10305972;28;20038;-29
2022/07/27 06:57:33;;;;;;;2.50;1.33;;;;;;;21.31;54.11;96646.03;10304917;28;20856;-28
2022/07/27 07:02:33;;;;;;;5.63;1.80;;;;;;;21.29;54.54;96642.66;10308597;28;20292;-28
2022/07/27 07:07:33;;;;;;;6.73;2.20;;;;;;;21.31;54.35;96640.94;10302888;28;20048;-28
2022/07/27 07:12:34;;;;;;;5.33;2.10;;;;;;;21.30;54.46;96640.97;10305523;28;20049;-28
2022/07/27 07:17:34;;;;;;;2.10;1.67;;;;;;;21.32;54.55;96637.53;10310004;28;20030;-28
2022/07/27 07:22:34;;;;;;;4.37;1.70;;;;;;;21.33;54.70;96643.47;10307330;28;20455;-28
2022/07/27 07:27:35;;;;;;;2.00;1.30;;;;;;;21.34;54.73;96640.94;10303140;28;20376;-28
2022/07/27 07:32:35;;;;;;;6.93;1.50;;;;;;;21.35;54.64;96640.06;10293966;28;20033;-28
2022/07/27 07:37:36;;;;;;;2.67;1.40;;;;;;;21.36;54.83;96639.19;10299005;28;20029;-28
2022/07/27 07:42:53;;;;;;;3.90;1.35;;;;;;;21.55;54.12;96635.53;10303328;28;20420;-28
2022/07/27 07:47:54;;;;;;;4.40;1.40;;;;;;;21.61;53.87;96638.00;10299226;28;20041;-29
2022/07/27 07:52:55;;;;;;;2.40;1.17;;;;;;;21.54;54.12;96633.84;10304397;28;20068;-29
2022/07/27 07:57:56;;;;;;;2.90;1.38;;;;;;;21.51;54.38;96644.09;10299080;28;20053;-28
2022/07/27 08:02:57;;;;;;;1.30;0.93;;;;;;;21.41;54.54;96637.41;10291357;28;20137;-29
2022/07/27 08:07:57;;;;;;;2.22;1.35;;;;;;;21.48;54.39;96646.66;10303780;28;20128;-28
2022/07/27 08:12:58;;;;;;;3.03;1.50;;;;;;;21.49;54.57;96650.06;10303962;28;20511;-28
2022/07/27 08:17:58;;;;;;;4.87;2.23;;;;;;;21.47;54.51;96644.16;10298785;28;20037;-29
2022/07/27 08:22:59;;;;;;;3.60;1.70;;;;;;;21.50;54.41;96644.97;10294914;28;20054;-29
2022/07/27 08:27:59;;;;;;;4.15;1.27;;;;;;;21.57;53.70;96649.09;10305564;28;20033;-28
2022/07/27 08:33:02;;;;;;;2.53;1.50;;;;;;;21.78;53.22;96648.00;10303170;28;20037;-28
2022/07/27 08:38:05;;;;;;;2.33;1.60;;;;;;;21.77;53.39;96641.22;10303043;28;20045;-28
2022/07/27 08:43:07;;;;;;;2.53;1.42;;;;;;;21.67;54.21;96643.06;10312703;28;20033;-27
2022/07/27 08:48:15;;;;;;;3.53;1.58;;;;;;;21.63;54.44;96638.81;10310397;28;20046;-27
2022/07/27 08:53:17;;;;;;;2.58;1.75;;;;;;;21.60;54.40;96633.78;10306048;28;20172;-27
2022/07/27 08:58:17;;;;;;;8.80;1.92;;;;;;;21.59;55.36;96641.44;10303506;28;20160;-28
2022/07/27 09:03:20;;;;;;;6.03;1.55;;;;;;;21.78;54.75;96630.16;10305998;28;20034;-28
2022/07/27 09:08:26;;;;;;;7.47;1.83;;;;;;;21.86;55.61;96636.84;10301608;28;20084;-29
2022/07/27 09:13:32;;;;;;;9.15;1.65;;;;;;;21.88;54.30;96640.19;10302462;28;20066;-28
2022/07/27 09:18:33;;;;;;;1.98;1.23;;;;;;;22.00;54.39;96628.97;10307855;28;20184;-27
2022/07/27 09:23:33;;;;;;;2.13;1.27;;;;;;;22.08;53.85;96629.72;10304143;28;20470;-28
2022/07/27 09:28:34;;;;;;;4.90;1.87;;;;;;;22.03;54.31;96624.69;10305136;28;20057;-27
2022/07/27 09:33:49;;;;;;;4.05;1.60;;;;;;;21.87;53.97;96628.31;10305926;28;20045;-28
2022/07/27 09:39:05;;;;;;;3.40;1.58;;;;;;;21.87;53.77;96630.88;10309111;28;20042;-28
2022/07/27 09:44:06;;;;;;;4.83;1.93;;;;;;;21.89;54.67;96631.69;10310530;28;20034;-28
2022/07/27 09:49:26;;;;;;;2.80;1.60;;;;;;;21.81;54.08;96628.41;10311669;28;20057;-29
2022/07/27 09:54:27;;;;;;;6.90;1.95;;;;;;;21.82;53.80;96624.16;10309613;28;20072;-29
2022/07/27 09:59:28;;;;;;;4.28;1.70;;;;;;;21.88;53.98;96635.09;10313101;28;20056;-29
2022/07/27 10:04:31;;;;;;;2.75;1.63;;;;;;;21.92;53.77;96626.56;10308126;28;20041;-28
2022/07/27 10:09:33;;;;;;;6.82;1.75;;;;;;;22.07;53.50;96626.31;10304762;28;20038;-29
2022/07/27 10:14:35;;;;;;;7.20;2.42;;;;;;;22.14;53.55;96622.78;10305369;28;20415;-28
2022/07/27 10:19:46;;;;;;;11.23;1.90;;;;;;;22.23;53.31;96625.19;10305277;28;20034;-28
2022/07/27 10:24:58;;;;;;;5.07;2.08;;;;;;;22.10;53.69;96625.41;10303102;28;21916;-28
2022/07/27 10:29:58;;;;;;;3.60;1.50;;;;;;;21.94;52.08;96635.03;10304978;28;20025;-30
2022/07/27 10:35:00;;;;;;;4.57;1.27;;;;;;;21.83;50.84;96629.25;10307082;28;20034;-29
2022/07/27 10:45:37;;;;;;;4.32;1.50;;;;;;;22.12;53.45;96623.69;10302604;28;20092;-29
2022/07/27 10:50:46;;;;;;;4.95;1.70;;;;;;;22.10;53.20;96631.38;10353905;28;20039;-28
2022/07/27 10:55:48;;;;;;;4.30;1.60;;;;;;;22.23;53.27;96627.75;10366102;28;20407;-28
2022/07/27 11:00:48;;;;;;;5.55;2.00;;;;;;;22.34;52.28;96620.78;10363390;28;20030;-29
2022/07/27 11:06:06;;;;;;;6.90;1.70;;;;;;;22.32;52.01;96619.94;10361440;28;20499;-28
2022/07/27 11:11:09;;;;;;;4.80;1.50;;;;;;;22.01;51.32;96616.22;10362278;28;20116;-28
2022/07/27 11:16:12;;;;;;;2.58;1.48;;;;;;;22.12;52.72;96608.38;10354881;28;20026;-28
2022/07/27 11:21:29;;;;;;;1.88;1.23;;;;;;;21.97;52.18;96604.38;10361433;28;20041;-28
2022/07/27 11:26:36;;;;;;;5.20;1.70;;;;;;;21.96;51.35;96597.59;10364578;28;20132;-28
2022/07/27 11:31:38;;;;;;;2.53;1.23;;;;;;;21.87;50.69;96597.72;10359560;28;20052;-27
2022/07/27 11:36:50;;;;;;;2.30;1.60;;;;;;;22.09;52.88;96593.13;10361822;28;20030;-28
2022/07/27 11:41:59;;;;;;;5.07;1.40;;;;;;;22.28;52.04;96586.84;10358379;28;20041;-28
2022/07/27 11:46:59;;;;;;;5.32;2.50;;;;;;;22.22;52.22;96580.16;10360803;28;20515;-29
2022/07/27 11:52:07;;;;;;;7.72;1.88;;;;;;;22.37;51.13;96568.84;10365816;28;20048;-28
2022/07/27 11:57:17;;;;;;;5.55;1.67;;;;;;;22.34;51.27;96564.66;10363096;28;20038;-28
2022/07/27 12:02:19;;;;;;;2.83;1.52;;;;;;;22.06;50.56;96568.53;10361536;28;20034;-28
2022/07/27 12:07:26;;;;;;;2.60;1.25;;;;;;;21.91;49.35;96573.88;10340251;28;20443;-28
2022/07/27 12:12:32;;;;;;;1.92;1.20;;;;;;;21.95;50.14;96567.88;10346684;28;20038;-28
2022/07/27 12:17:34;;;;;;;6.47;1.30;;;;;;;22.09;51.60;96565.94;10356140;28;20038;-28
2022/07/27 12:22:43;;;;;;;4.90;1.20;;;;;;;22.00;50.93;96568.66;10361114;28;20418;-28
2022/07/27 12:27:58;;;;;;;2.33;1.52;;;;;;;22.00;49.70;96566.09;10367632;28;20043;-28
2022/07/27 12:33:00;;;;;;;2.00;1.38;;;;;;;21.98;48.17;96570.34;10360728;28;20042;-28
2022/07/27 12:38:05;;;;;;;2.65;1.52;;;;;;;22.07;50.47;96570.22;10364001;28;20092;-28
2022/07/27 12:43:05;;;;;;;4.93;1.60;;;;;;;22.05;51.84;96566.84;10362757;28;20467;-28
2022/07/27 12:48:17;;;;;;;3.27;1.10;;;;;;;22.04;51.47;96549.00;10363995;28;20045;-28
2022/07/27 12:53:18;;;;;;;1.70;1.20;;;;;;;21.98;50.76;96544.88;10358663;28;20794;-28
2022/07/27 12:58:18;;;;;;;3.10;1.50;;;;;;;22.16;52.31;96552.19;10364035;28;20034;-29
2022/07/27 13:03:19;;;;;;;8.90;1.60;;;;;;;22.09;51.96;96549.78;10366464;28;20675;-27
2022/07/27 13:08:19;;;;;;;4.32;1.40;;;;;;;22.02;50.50;96551.63;10368108;28;20045;-28
2022/07/27 13:13:23;;;;;;;2.73;1.37;;;;;;;22.04;49.83;96536.28;10368770;28;20053;-28
2022/07/27 13:18:23;;;;;;;6.15;1.27;;;;;;;22.25;52.18;96529.13;10368147;28;20056;-28
2022/07/27 13:23:23;;;;;;;7.73;1.83;;;;;;;22.42;51.66;96531.38;10365653;28;20028;-28
2022/07/27 13:28:24;;;;;;;4.30;1.30;;;;;;;22.51;51.11;96536.31;10369908;28;20044;-28
2022/07/27 13:33:24;;;;;;;8.87;1.87;;;;;;;22.54;50.57;96531.13;10366499;28;20041;-28
2022/07/27 13:38:25;;;;;;;4.10;1.83;;;;;;;22.52;50.04;96531.19;10368231;28;20045;-28
2022/07/27 13:43:25;;;;;;;3.67;1.58;;;;;;;22.16;49.86;96534.34;10362535;28;20040;-28
2022/07/27 13:48:26;;;;;;;1.23;1.00;;;;;;;22.05;49.53;96528.59;10368385;28;20033;-28
2022/07/27 13:53:27;;;;;;;3.40;1.45;;;;;;;21.99;49.12;96521.03;10364170;28;20129;-28
2022/07/27 13:58:28;;;;;;;2.55;1.58;;;;;;;22.06;50.51;96522.63;10370434;28;20048;-28
2022/07/27 14:03:28;;;;;;;2.20;1.30;;;;;;;22.12;49.74;96517.44;10363767;28;20458;-28
2022/07/27 14:08:29;;;;;;;2.33;1.60;;;;;;;22.39;50.20;96516.94;10366538;28;20069;-27
2022/07/27 14:13:31;;;;;;;3.87;1.50;;;;;;;22.45;49.86;96509.22;10364625;28;20045;-27
2022/07/27 14:18:31;;;;;;;4.15;1.23;;;;;;;22.34;50.37;96510.25;10368566;28;20280;-28
2022/07/27 14:23:33;;;;;;;2.45;1.13;;;;;;;22.50;49.54;96504.00;10363465;28;20030;-27
2022/07/27 14:28:34;;;;;;;1.73;1.20;;;;;;;22.34;50.30;96503.44;10365107;28;20146;-29
2022/07/27 14:33:35;;;;;;;3.30;1.58;;;;;;;22.50;49.53;96499.72;10366583;28;20555;-27
2022/07/27 14:38:36;;;;;;;2.75;1.60;;;;;;;22.30;50.66;96494.16;10364977;28;20033;-28
2022/07/27 14:43:37;;;;;;;3.17;1.48;;;;;;;22.19;50.62;96490.97;10363854;28;20496;-27
2022/07/27 14:48:37;;;;;;;5.43;1.42;;;;;;;22.48;50.12;96495.56;10364938;28;20025;-28
2022/07/27 14:53:37;;;;;;;2.17;1.20;;;;;;;22.57;50.08;96497.94;10361768;28;20514;-28
2022/07/27 14:58:38;;;;;;;1.60;1.10;;;;;;;22.29;51.20;96500.13;10366264;28;20088;-28
2022/07/27 15:03:38;;;;;;;5.87;1.57;;;;;;;22.11;48.95;96499.59;10358225;28;20032;-28
2022/07/27 15:08:38;;;;;;;7.37;1.73;;;;;;;22.07;47.53;96498.00;10362371;28;20300;-28
2022/07/27 15:13:39;;;;;;;3.00;1.30;;;;;;;22.05;48.01;96492.09;10363298;28;20060;-28
2022/07/27 15:18:39;;;;;;;2.03;1.53;;;;;;;22.23;50.54;96489.19;10364509;28;20662;-27
2022/07/27 15:23:42;;;;;;;8.63;2.10;;;;;;;22.36;50.63;96491.50;10360922;28;20300;-28
2022/07/27 15:28:42;;;;;;;8.27;2.03;;;;;;;22.53;50.17;96479.28;10362664;28;20033;-28
2022/07/27 15:33:42;;;;;;;3.77;1.70;;;;;;;22.64;49.33;96476.53;10366441;28;20038;-30
2022/07/27 15:38:43;;;;;;;1.93;1.57;;;;;;;22.36;48.98;96480.44;10368226;28;20315;-28
2022/07/27 15:43:43;;;;;;;2.67;1.40;;;;;;;22.25;49.58;96472.16;10366826;28;20046;-27
2022/07/27 15:48:43;;;;;;;7.70;1.60;;;;;;;22.40;50.83;96477.78;10369209;28;20034;-28
2022/07/27 15:53:44;;;;;;;2.93;1.47;;;;;;;22.56;50.26;96468.19;10362097;28;20530;-28
2022/07/27 15:58:44;;;;;;;6.53;1.80;;;;;;;22.64;49.87;96467.13;10369139;28;20392;-28
2022/07/27 16:03:44;;;;;;;3.07;1.37;;;;;;;22.24;48.62;96470.47;10360570;28;20044;-28
2022/07/27 16:08:45;;;;;;;1.73;1.10;;;;;;;22.31;49.49;96466.94;10362208;28;20084;-28
2022/07/27 16:13:47;;;;;;;4.20;1.47;;;;;;;22.22;50.20;96467.94;10352465;28;20069;-27
2022/07/27 16:18:50;;;;;;;3.10;1.30;;;;;;;22.33;51.64;96463.47;10355746;28;20348;-28
2022/07/27 16:23:53;;;;;;;3.28;2.00;;;;;;;22.42;50.29;96455.69;10360367;28;20038;-28
2022/07/27 16:28:55;;;;;;;2.30;1.52;;;;;;;22.22;49.59;96450.09;10361499;28;20038;-29
2022/07/27 16:33:58;;;;;;;3.55;1.38;;;;;;;22.29;50.36;96453.34;10363703;28;20042;-26
2022/07/27 16:38:58;;;;;;;2.50;1.30;;;;;;;22.12;50.47;96456.25;10362080;28;20040;-27
2022/07/27 16:43:59;;;;;;;2.33;1.40;;;;;;;22.06;48.83;96451.25;10361299;28;20046;-27
2022/07/27 16:48:59;;;;;;;1.73;1.10;;;;;;;22.04;48.94;96445.34;10361862;28;20284;-27
2022/07/27 16:54:00;;;;;;;3.27;1.47;;;;;;;22.00;49.80;96451.38;10359529;28;20038;-27
2022/07/27 16:59:00;;;;;;;2.10;1.50;;;;;;;22.01;48.81;96450.50;10363575;28;20123;-28
2022/07/27 17:04:00;;;;;;;2.10;1.35;;;;;;;22.10;48.45;96447.78;10362854;28;20025;-28
2022/07/27 17:09:01;;;;;;;1.57;1.30;;;;;;;22.11;47.50;96454.56;10368332;28;20029;-28
2022/07/27 17:14:02;;;;;;;2.80;1.50;;;;;;;22.01;48.66;96447.97;10368605;28;20305;-27
2022/07/27 17:19:03;;;;;;;3.22;1.40;;;;;;;21.99;48.62;96448.84;10370696;28;20390;-27
2022/07/27 17:24:03;;;;;;;2.10;1.40;;;;;;;21.98;48.87;96453.09;10366235;28;20025;-27
2022/07/27 17:29:04;;;;;;;2.45;1.65;;;;;;;21.98;49.12;96445.44;10368104;28;20037;-27
2022/07/27 17:34:05;;;;;;;4.20;1.63;;;;;;;21.98;49.52;96448.00;10369666;28;20045;-27
2022/07/27 17:39:05;;;;;;;2.70;1.60;;;;;;;22.08;51.61;96457.16;10367321;28;20038;-27
2022/07/27 17:44:05;;;;;;;1.60;1.10;;;;;;;22.01;50.07;96453.06;10363270;28;20488;-26
2022/07/27 17:49:06;;;;;;;3.83;1.60;;;;;;;22.07;48.91;96457.19;10369128;28;20104;-25
2022/07/27 17:54:06;;;;;;;3.13;1.80;;;;;;;22.11;48.52;96453.69;10364321;28;20026;-26
2022/07/27 17:59:06;;;;;;;5.47;1.50;;;;;;;22.03;49.42;96458.09;10365887;28;20029;-25
2022/07/27 18:04:07;;;;;;;4.47;1.60;;;;;;;22.01;49.38;96460.69;10362244;28;20515;-26
2022/07/27 18:09:07;;;;;;;3.88;1.52;;;;;;;21.99;49.80;96464.97;10360348;28;20563;-27
2022/07/27 18:14:08;;;;;;;3.80;1.80;;;;;;;21.97;50.05;96466.72;10358136;28;20480;-27
2022/07/27 18:19:08;;;;;;;2.87;2.27;;;;;;;22.02;49.54;96475.13;10362057;28;20293;-27
2022/07/27 18:24:09;;;;;;;1.60;1.23;;;;;;;22.00;49.89;96476.00;10357874;28;20030;-26
2022/07/27 18:29:09;;;;;;;2.80;1.50;;;;;;;22.01;49.37;96473.44;10362801;28;20516;-25
2022/07/27 18:34:09;;;;;;;3.30;1.57;;;;;;;22.00;48.97;96466.69;10348120;28;20029;-26
2022/07/27 18:39:10;;;;;;;4.10;1.80;;;;;;;22.05;48.29;96471.69;10360326;28;20046;-27
2022/07/27 18:44:10;;;;;;;2.77;1.40;;;;;;;22.07;48.66;96473.31;10361063;28;20076;-27
2022/07/27 18:49:11;;;;;;;2.87;1.70;;;;;;;22.02;49.28;96470.03;10360652;28;20037;-26
2022/07/27 18:54:12;;;;;;;5.72;1.55;;;;;;;21.98;50.13;96472.66;10356651;28;20124;-25
2022/07/27 18:59:14;;;;;;;3.43;1.37;;;;;;;21.92;52.21;96472.75;10362227;28;20034;-25
2022/07/27 19:04:15;;;;;;;1.92;1.23;;;;;;;21.84;52.56;96480.53;10360352;28;20026;-25
2022/07/27 19:09:15;;;;;;;3.42;1.50;;;;;;;21.75;50.97;96465.41;10361861;28;20049;-26
2022/07/27 19:14:21;;;;;;;2.40;1.67;;;;;;;21.95;50.34;96488.84;10356737;28;20661;-27
2022/07/27 19:19:21;;;;;;;2.47;1.23;;;;;;;21.79;53.38;96487.41;10360924;28;20040;-26
2022/07/27 19:24:22;;;;;;;2.10;1.07;;;;;;;21.82;53.44;96489.91;10353744;28;20038;-26
2022/07/27 19:29:23;;;;;;;2.03;1.00;;;;;;;21.75;54.42;96501.09;10354399;28;20038;-26
2022/07/27 19:34:24;;;;;;;2.08;1.30;;;;;;;21.73;54.46;96513.00;10356377;28;20414;-25
2022/07/27 19:39:24;;;;;;;3.58;1.30;;;;;;;21.74;53.72;96516.41;10354203;28;20048;-25
2022/07/27 19:44:26;;;;;;;4.13;1.10;;;;;;;21.76;53.60;96523.16;10356533;28;20100;-25
2022/07/27 19:49:27;;;;;;;3.45;1.17;;;;;;;21.60;54.20;96525.91;10362768;28;20289;-26
2022/07/27 19:54:27;;;;;;;1.90;1.20;;;;;;;21.57;54.60;96521.72;10354763;28;20034;-26
2022/07/27 19:59:28;;;;;;;1.50;1.40;;;;;;;21.56;54.15;96525.13;10359423;28;20044;-25
2022/07/27 20:04:28;;;;;;;3.47;1.65;;;;;;;21.53;54.25;96525.19;10355473;28;20113;-26
2022/07/27 20:09:28;;;;;;;3.45;1.42;;;;;;;21.46;54.41;96526.13;10358133;28;20095;-25
2022/07/27 20:14:29;;;;;;;3.27;1.60;;;;;;;21.45;53.25;96527.00;10350630;28;20073;-26
2022/07/27 20:19:29;;;;;;;2.92;1.83;;;;;;;21.47;52.24;96524.44;10360128;28;20033;-25
2022/07/27 20:24:30;;;;;;;3.77;2.10;;;;;;;21.50;52.79;96520.13;10353594;28;20045;-26
2022/07/27 20:29:31;;;;;;;1.55;1.20;;;;;;;21.47;53.47;96519.34;10358983;28;20297;-26
2022/07/27 20:34:31;;;;;;;6.60;1.90;;;;;;;21.46;52.40;96522.75;10362141;28;20061;-26
2022/07/27 20:39:32;;;;;;;4.80;1.87;;;;;;;21.43;52.49;96521.09;10364512;28;20049;-26
2022/07/27 20:44:32;;;;;;;2.78;1.48;;;;;;;21.27;53.16;96522.16;10370594;28;20404;-25
2022/07/27 20:49:33;;;;;;;6.47;1.73;;;;;;;21.25;53.19;96520.50;10370480;28;20052;-25
2022/07/27 20:54:34;;;;;;;7.47;2.20;;;;;;;21.16;52.80;96513.84;10366405;28;20036;-27
2022/07/27 20:59:34;;;;;;;2.45;2.05;;;;;;;21.24;53.02;96517.09;10370779;28;20383;-27
2022/07/27 21:04:35;;;;;;;4.95;2.40;;;;;;;21.22;52.82;96521.38;10368868;28;20422;-26
2022/07/27 21:09:36;;;;;;;5.10;2.50;;;;;;;21.07;52.58;96513.94;10367500;28;20048;-26
2022/07/27 21:14:36;;;;;;;4.07;2.08;;;;;;;21.09;52.99;96508.84;10359179;28;20205;-26
2022/07/27 21:19:37;;;;;;;2.85;2.65;;;;;;;21.06;52.08;96511.44;10366744;28;20451;-26
2022/07/27 21:24:37;;;;;;;5.50;2.30;;;;;;;21.04;52.32;96503.00;10363858;28;20038;-25
2022/07/27 21:29:38;;;;;;;2.63;2.17;;;;;;;20.93;53.20;96512.44;10368511;28;20069;-26
2022/07/27 21:34:38;;;;;;;2.83;2.05;;;;;;;21.12;52.74;96516.44;10370002;28;20037;-26
2022/07/27 21:39:38;;;;;;;4.70;2.03;;;;;;;21.09;53.07;96522.44;10362712;28;20048;-26
2022/07/27 21:44:39;;;;;;;2.00;1.80;;;;;;;21.03;52.63;96522.50;10363073;28;20310;-25
2022/07/27 21:49:39;;;;;;;5.20;1.90;;;;;;;21.07;52.26;96528.41;10368248;28;20405;-26
2022/07/27 21:54:40;;;;;;;2.85;1.90;;;;;;;21.04;52.59;96524.19;10360828;28;20297;-26
2022/07/27 21:59:40;;;;;;;5.20;2.33;;;;;;;20.97;52.79;96506.47;10367304;28;20145;-25
2022/07/27 22:04:41;;;;;;;3.47;2.10;;;;;;;20.98;52.36;96518.34;10361074;28;20380;-25
2022/07/27 22:09:41;;;;;;;7.93;2.05;;;;;;;20.98;52.66;96519.16;10366093;28;20121;-26
2022/07/27 22:14:41;;;;;;;5.40;1.90;;;;;;;20.92;52.68;96519.25;10357617;28;20118;-26
2022/07/27 22:19:42;;;;;;;4.90;1.93;;;;;;;20.96;53.00;96520.88;10367733;28;20388;-27
2022/07/27 22:24:42;;;;;;;2.57;1.83;;;;;;;20.96;51.99;96520.88;10365639;28;20144;-25
2022/07/27 22:29:42;;;;;;;5.47;2.00;;;;;;;20.96;52.80;96520.88;10365213;28;20045;-26
2022/07/27 22:34:43;;;;;;;5.50;2.10;;;;;;;20.78;52.55;96533.81;10366472;28;20171;-26
2022/07/27 22:39:43;;;;;;;2.07;1.60;;;;;;;20.79;52.73;96530.41;10365303;28;20037;-27
2022/07/27 22:44:43;;;;;;;2.17;1.70;;;;;;;20.76;52.61;96520.28;10361378;28;20373;-25
2022/07/27 22:49:44;;;;;;;2.23;2.00;;;;;;;20.81;52.88;96525.31;10366679;28;20045;-25
2022/07/27 22:54:44;;;;;;;3.60;1.80;;;;;;;20.79;52.96;96532.94;10361132;28;20081;-26
2022/07/27 22:59:45;;;;;;;2.90;1.50;;;;;;;20.80;52.85;96526.16;10366756;28;20026;-25
2022/07/27 23:04:45;;;;;;;2.37;1.97;;;;;;;20.75;53.35;96523.69;10361329;28;20076;-26
2022/07/27 23:09:45;;;;;;;4.50;1.93;;;;;;;20.65;53.66;96514.44;10369477;28;20030;-24
2022/07/27 23:14:46;;;;;;;2.47;1.70;;;;;;;20.66;53.57;96506.00;10368536;28;20053;-26
2022/07/27 23:19:46;;;;;;;2.33;1.73;;;;;;;20.63;53.84;96506.00;10368919;28;20053;-26
2022/07/27 23:24:46;;;;;;;2.87;1.77;;;;;;;20.54;53.69;96506.13;10367291;28;20347;-25
2022/07/27 23:29:47;;;;;;;3.57;1.53;;;;;;;20.53;53.83;96499.34;10366259;28;20034;-25
2022/07/27 23:34:47;;;;;;;1.87;1.50;;;;;;;20.56;53.96;96508.66;10366278;28;20044;-26